createdAt,value
2019-02-22T00:01:49.054Z,21.53
2019-02-22T00:04:18.125Z,16.80
2019-02-22T00:06:47.355Z,19.87
2019-02-22T00:09:16.784Z,22.35
2019-02-22T00:11:45.786Z,16.73
2019-02-22T00:14:15.148Z,17.77
2019-02-22T00:16:44.107Z,21.57
2019-02-22T00:19:13.431Z,20.25
2019-02-22T00:21:42.479Z,25.87
2019-02-22T00:24:12.039Z,18.82
2019-02-22T00:26:40.905Z,21.83
2019-02-22T00:29:10.274Z,20.25
2019-02-22T00:31:39.507Z,19.40
2019-02-22T00:34:09.690Z,20.77
2019-02-22T00:36:38.691Z,21.23
2019-02-22T00:39:07.705Z,20.40
2019-02-22T00:41:36.688Z,23.87
2019-02-22T00:44:05.655Z,21.65
2019-02-22T00:46:34.916Z,25.03
2019-02-22T00:49:03.785Z,18.57
2019-02-22T00:51:32.621Z,20.63
2019-02-22T00:54:01.499Z,22.58
2019-02-22T00:56:30.462Z,20.33
2019-02-22T00:58:59.472Z,20.88
2019-02-22T01:01:28.470Z,20.30
2019-02-22T01:03:57.395Z,22.80
2019-02-22T01:06:26.825Z,21.65
2019-02-22T01:08:55.785Z,21.30
2019-02-22T01:11:24.826Z,24.30
2019-02-22T01:13:53.706Z,24.40
2019-02-22T01:16:22.726Z,29.67
2019-02-22T01:18:51.644Z,26.40
2019-02-22T01:21:20.620Z,27.10
2019-02-22T01:23:49.847Z,25.60
2019-02-22T01:26:18.799Z,27.23
2019-02-22T01:28:47.815Z,27.15
2019-02-22T01:31:16.820Z,27.23
2019-02-22T01:33:45.746Z,26.62
2019-02-22T01:36:14.772Z,25.27
2019-02-22T01:38:43.715Z,25.02
2019-02-22T01:41:12.790Z,26.63
2019-02-22T01:43:41.770Z,28.17
2019-02-22T01:46:10.699Z,27.13
2019-02-22T01:48:39.947Z,24.75
2019-02-22T01:51:08.895Z,25.40
2019-02-22T01:53:37.834Z,25.17
2019-02-22T01:56:06.795Z,27.07
2019-02-22T01:58:36.060Z,24.92
2019-02-22T02:01:05.527Z,24.80
2019-02-22T02:03:34.719Z,22.20
2019-02-22T02:06:03.540Z,23.77
2019-02-22T02:08:33.483Z,22.02
2019-02-22T02:11:02.546Z,20.63
2019-02-22T02:13:31.402Z,22.27
2019-02-22T02:16:00.235Z,19.90
2019-02-22T02:18:29.199Z,20.50
2019-02-22T02:20:58.515Z,21.70
2019-02-22T02:23:27.798Z,21.23
2019-02-22T02:25:56.783Z,23.37
2019-02-22T02:28:25.799Z,21.80
2019-02-22T02:30:55.134Z,21.10
2019-02-22T02:33:24.176Z,21.97
2019-02-22T02:35:52.980Z,20.23
2019-02-22T02:38:21.959Z,22.00
2019-02-22T02:40:50.809Z,20.37
2019-02-22T02:43:19.845Z,23.30
2019-02-22T02:45:48.787Z,21.53
2019-02-22T02:48:18.043Z,20.62
2019-02-22T02:50:47.119Z,19.13
2019-02-22T02:53:16.294Z,17.57
2019-02-22T02:55:45.652Z,18.23
2019-02-22T02:58:14.647Z,17.15
2019-02-22T03:00:43.873Z,16.70
2019-02-22T03:03:12.817Z,14.58
2019-02-22T03:06:03.937Z,14.67
2019-02-22T03:08:34.941Z,14.03
2019-02-22T03:11:04.227Z,13.40
2019-02-22T03:13:33.179Z,13.65
2019-02-22T03:16:02.544Z,13.20
2019-02-22T03:18:31.399Z,11.35
2019-02-22T03:21:00.383Z,12.03
2019-02-22T03:23:30.002Z,12.40
2019-02-22T03:25:58.926Z,13.23
2019-02-22T03:28:27.855Z,12.47
2019-02-22T03:30:56.912Z,11.47
2019-02-22T03:33:25.884Z,11.57
2019-02-22T03:35:55.338Z,10.20
2019-02-22T03:38:24.370Z,12.18
2019-02-22T03:40:53.635Z,12.15
2019-02-22T03:43:22.622Z,12.88
2019-02-22T03:45:51.616Z,11.27
2019-02-22T03:48:20.689Z,12.85
2019-02-22T03:50:49.904Z,10.73
2019-02-22T03:53:41.337Z,12.68
2019-02-22T03:56:10.275Z,12.20
2019-02-22T03:58:39.602Z,14.05
2019-02-22T04:01:08.636Z,13.23
2019-02-22T04:03:37.676Z,12.80
2019-02-22T04:06:07.322Z,12.37
2019-02-22T04:08:36.384Z,11.75
2019-02-22T04:11:05.421Z,13.80
2019-02-22T04:13:34.853Z,12.05
2019-02-22T04:16:04.206Z,11.63
2019-02-22T04:18:33.129Z,10.60
2019-02-22T04:21:02.822Z,11.50
2019-02-22T04:23:32.029Z,10.13
2019-02-22T04:26:01.038Z,11.63
2019-02-22T04:28:29.976Z,11.75
2019-02-22T04:30:59.294Z,13.13
2019-02-22T04:33:28.218Z,10.88
2019-02-22T04:35:57.214Z,11.40
2019-02-22T04:38:26.091Z,11.80
2019-02-22T04:40:54.956Z,11.67
2019-02-22T04:43:23.931Z,10.40
2019-02-22T04:45:53.154Z,11.13
2019-02-22T04:48:22.503Z,11.33
2019-02-22T04:50:52.209Z,10.33
2019-02-22T04:53:21.573Z,10.88
2019-02-22T04:55:50.909Z,11.17
2019-02-22T04:58:20.309Z,11.33
2019-02-22T05:00:49.539Z,10.38
2019-02-22T05:03:18.381Z,9.73
2019-02-22T05:05:47.459Z,10.28
2019-02-22T05:08:16.367Z,12.07
2019-02-22T05:10:45.467Z,10.23
2019-02-22T05:13:14.322Z,10.82
2019-02-22T05:15:43.364Z,10.70
2019-02-22T05:18:12.803Z,10.25
2019-02-22T05:20:41.682Z,9.63
2019-02-22T05:23:10.678Z,10.48
2019-02-22T05:25:39.603Z,10.13
2019-02-22T05:28:08.491Z,9.98
2019-02-22T05:30:37.727Z,11.37
2019-02-22T05:33:06.903Z,12.23
2019-02-22T05:35:35.986Z,11.30
2019-02-22T05:38:05.242Z,13.18
2019-02-22T05:40:34.095Z,11.57
2019-02-22T05:43:03.041Z,11.53
2019-02-22T05:45:32.410Z,13.07
2019-02-22T05:48:01.692Z,11.43
2019-02-22T05:50:30.582Z,13.57
2019-02-22T05:52:59.715Z,14.18
2019-02-22T05:55:28.840Z,12.90
2019-02-22T05:57:57.799Z,11.15
2019-02-22T06:00:26.722Z,13.50
2019-02-22T06:02:55.682Z,13.20
2019-02-22T06:05:24.663Z,13.22
2019-02-22T06:07:53.714Z,13.08
2019-02-22T06:10:22.842Z,13.20
2019-02-22T06:12:51.922Z,14.80
2019-02-22T06:15:20.785Z,15.23
2019-02-22T06:17:49.666Z,14.25
2019-02-22T06:20:18.614Z,12.73
2019-02-22T06:22:48.097Z,14.15
2019-02-22T06:25:17.324Z,14.98
2019-02-22T06:27:46.592Z,14.73
2019-02-22T06:30:15.888Z,13.98
2019-02-22T06:32:44.795Z,14.45
2019-02-22T06:35:13.772Z,14.20
2019-02-22T06:37:43.523Z,15.25
2019-02-22T06:40:12.703Z,15.03
2019-02-22T06:42:45.658Z,14.80
2019-02-22T06:45:12.409Z,16.87
2019-02-22T06:47:41.384Z,17.23
2019-02-22T06:50:10.338Z,17.32
2019-02-22T06:52:39.276Z,15.03
2019-02-22T06:55:08.299Z,14.80
2019-02-22T06:57:37.287Z,17.77
2019-02-22T07:00:06.731Z,16.12
2019-02-22T07:02:35.658Z,15.60
2019-02-22T07:05:04.919Z,16.73
2019-02-22T07:07:33.880Z,16.52
2019-02-22T07:10:02.807Z,16.75
2019-02-22T07:12:35.326Z,17.57
2019-02-22T07:15:04.830Z,17.12
2019-02-22T07:17:33.886Z,15.38
2019-02-22T07:20:02.863Z,19.55
2019-02-22T07:22:31.768Z,18.27
2019-02-22T07:25:00.755Z,19.07
2019-02-22T07:27:29.682Z,16.47
2019-02-22T07:29:58.599Z,16.27
2019-02-22T07:32:27.446Z,16.73
2019-02-22T07:34:56.451Z,16.20
2019-02-22T07:37:25.707Z,18.40
2019-02-22T07:39:54.539Z,18.62
2019-02-22T07:42:23.486Z,18.20
2019-02-22T07:44:52.434Z,19.77
2019-02-22T07:47:21.651Z,20.90
2019-02-22T07:49:50.512Z,18.77
2019-02-22T07:52:19.529Z,17.95
2019-02-22T07:54:48.755Z,18.98
2019-02-22T07:57:17.723Z,17.50
2019-02-22T07:59:47.012Z,17.87
2019-02-22T08:02:16.103Z,20.73
2019-02-22T08:04:45.439Z,19.90
2019-02-22T08:07:14.393Z,18.93
2019-02-22T08:09:43.262Z,19.05
2019-02-22T08:12:12.115Z,17.30
2019-02-22T08:14:41.120Z,20.17
2019-02-22T08:17:10.209Z,19.57
2019-02-22T08:19:39.512Z,18.52
2019-02-22T08:22:08.783Z,19.80
2019-02-22T08:24:37.747Z,17.10
2019-02-22T08:27:06.711Z,19.17
2019-02-22T08:29:38.163Z,18.45
2019-02-22T08:32:06.266Z,16.90
2019-02-22T08:34:35.230Z,20.95
2019-02-22T08:37:04.208Z,19.33
2019-02-22T08:39:33.335Z,19.70
2019-02-22T08:42:02.349Z,19.43
2019-02-22T08:44:31.760Z,21.15
2019-02-22T08:47:00.875Z,19.40
2019-02-22T08:49:29.851Z,18.95
2019-02-22T08:51:58.770Z,19.50
2019-02-22T08:54:27.772Z,18.10
2019-02-22T08:56:57.059Z,17.37
2019-02-22T08:59:26.043Z,19.23
2019-02-22T09:01:55.050Z,17.87
2019-02-22T09:04:24.373Z,20.52
2019-02-22T09:06:53.313Z,19.73
2019-02-22T09:09:22.634Z,18.73
2019-02-22T09:11:51.691Z,22.93
2019-02-22T09:14:20.658Z,19.47
2019-02-22T09:16:49.505Z,16.95
2019-02-22T09:19:18.375Z,20.10
2019-02-22T09:21:48.025Z,19.50
2019-02-22T09:24:16.918Z,17.00
2019-02-22T09:26:45.782Z,17.23
2019-02-22T09:29:14.678Z,20.87
2019-02-22T09:31:43.612Z,18.70
2019-02-22T09:34:12.469Z,19.10
2019-02-22T09:36:41.845Z,16.93
2019-02-22T09:39:10.740Z,17.17
2019-02-22T09:41:39.889Z,17.07
2019-02-22T09:44:08.954Z,17.77
2019-02-22T09:46:37.878Z,16.33
2019-02-22T09:49:06.834Z,17.20
2019-02-22T09:51:36.010Z,17.57
2019-02-22T09:54:05.110Z,15.37
2019-02-22T09:56:34.034Z,16.57
2019-02-22T09:59:03.119Z,15.83
2019-02-22T10:01:32.487Z,14.80
2019-02-22T10:04:01.314Z,13.23
2019-02-22T10:06:30.383Z,14.13
2019-02-22T10:08:59.599Z,15.67
2019-02-22T10:11:28.629Z,13.60
2019-02-22T10:14:06.324Z,13.53
2019-02-22T10:16:28.231Z,14.43
2019-02-22T10:18:57.523Z,12.13
2019-02-22T10:21:27.154Z,13.77
2019-02-22T10:23:56.346Z,12.93
2019-02-22T10:26:25.613Z,14.07
2019-02-22T10:28:54.523Z,12.70
2019-02-22T10:31:23.499Z,12.87
2019-02-22T10:33:52.582Z,13.30
2019-02-22T10:36:21.895Z,12.27
2019-02-22T10:38:51.118Z,12.70
2019-02-22T10:41:20.142Z,14.07
2019-02-22T10:43:49.202Z,13.70
2019-02-22T10:46:18.276Z,13.10
2019-02-22T10:48:47.427Z,13.00
2019-02-22T10:51:16.569Z,11.63
2019-02-22T10:53:45.787Z,11.37
2019-02-22T10:56:14.827Z,10.67
2019-02-22T10:58:43.746Z,10.07
2019-02-22T11:01:12.724Z,9.97
2019-02-22T11:03:41.570Z,9.73
2019-02-22T11:06:10.822Z,9.17
2019-02-22T11:08:39.814Z,10.53
2019-02-22T11:11:08.989Z,8.33
2019-02-22T11:13:37.843Z,5.30
2019-02-22T11:16:06.732Z,5.50
2019-02-22T11:18:35.666Z,3.30
2019-02-22T11:21:04.614Z,4.27
2019-02-22T11:23:33.564Z,3.70
2019-02-22T11:26:02.467Z,3.63
2019-02-22T11:28:31.351Z,3.70
2019-02-22T11:31:00.311Z,4.27
2019-02-22T11:33:29.301Z,4.80
2019-02-22T11:35:58.287Z,3.30
2019-02-22T11:38:27.156Z,2.70
2019-02-22T11:40:56.167Z,2.47
2019-02-22T11:43:25.370Z,2.67
2019-02-22T11:45:54.330Z,2.03
2019-02-22T11:48:23.611Z,2.07
2019-02-22T11:50:52.442Z,2.23
2019-02-22T11:53:21.556Z,2.30
2019-02-22T11:55:50.555Z,2.20
2019-02-22T11:58:19.526Z,3.63
2019-02-22T12:00:48.414Z,2.13
2019-02-22T12:03:24.604Z,2.27
2019-02-22T12:05:48.095Z,2.23
2019-02-22T12:08:17.074Z,2.13
2019-02-22T12:10:45.895Z,2.97
2019-02-22T12:13:14.764Z,3.10
2019-02-22T12:15:43.759Z,2.97
2019-02-22T12:18:12.716Z,2.37
2019-02-22T12:20:41.966Z,2.23
2019-02-22T12:23:10.986Z,2.63
2019-02-22T12:25:39.823Z,3.50
2019-02-22T12:28:08.744Z,2.00
2019-02-22T12:30:37.715Z,2.43
2019-02-22T12:33:06.542Z,2.20
2019-02-22T12:35:35.806Z,2.97
2019-02-22T12:38:04.763Z,2.07
2019-02-22T12:40:33.624Z,2.07
2019-02-22T12:43:02.468Z,3.07
2019-02-22T12:45:31.325Z,2.47
2019-02-22T12:48:00.146Z,2.23
2019-02-22T12:50:29.302Z,2.40
2019-02-22T12:52:59.283Z,2.63
2019-02-22T12:55:28.190Z,2.17
2019-02-22T12:57:57.032Z,4.40
2019-02-22T13:00:26.051Z,2.00
2019-02-22T13:03:01.994Z,2.27
2019-02-22T13:05:26.426Z,1.43
2019-02-22T13:07:55.425Z,1.63
2019-02-22T13:10:24.240Z,1.67
2019-02-22T13:12:53.190Z,2.90
2019-02-22T13:15:22.508Z,3.30
2019-02-22T13:17:51.426Z,2.67
2019-02-22T13:20:20.359Z,2.87
2019-02-22T13:22:49.382Z,1.50
2019-02-22T13:25:18.799Z,2.30
2019-02-22T13:27:48.115Z,1.77
2019-02-22T13:30:17.611Z,2.10
2019-02-22T13:32:46.636Z,1.90
2019-02-22T13:35:15.688Z,2.63
2019-02-22T13:37:44.582Z,1.50
2019-02-22T13:40:13.982Z,2.20
2019-02-22T13:42:42.994Z,1.50
2019-02-22T13:45:12.216Z,1.90
2019-02-22T13:47:41.277Z,2.67
2019-02-22T13:50:12.326Z,2.00
2019-02-22T13:52:41.405Z,2.67
2019-02-22T13:55:10.378Z,2.37
2019-02-22T13:57:39.334Z,2.40
2019-02-22T14:00:11.110Z,2.83
2019-02-22T14:02:40.078Z,2.30
2019-02-22T14:05:09.057Z,2.13
2019-02-22T14:07:38.046Z,2.07
2019-02-22T14:10:07.787Z,2.15
2019-02-22T14:12:36.718Z,1.93
2019-02-22T14:15:06.430Z,2.37
2019-02-22T14:17:35.323Z,2.40
2019-02-22T14:20:04.433Z,2.53
2019-02-22T14:22:33.455Z,2.40
2019-02-22T14:25:03.318Z,2.77
2019-02-22T14:27:32.146Z,4.00
2019-02-22T14:30:01.220Z,1.73
2019-02-22T14:32:30.662Z,2.07
2019-02-22T14:34:59.599Z,2.50
2019-02-22T14:37:28.966Z,2.43
2019-02-22T14:40:03.375Z,2.17
2019-02-22T14:42:28.740Z,3.53
2019-02-22T14:44:57.784Z,2.70
2019-02-22T14:47:26.626Z,2.13
2019-02-22T14:49:55.435Z,2.83
2019-02-22T14:52:24.410Z,2.83
2019-02-22T14:54:53.266Z,3.20
2019-02-22T14:57:22.227Z,2.83
2019-02-22T14:59:51.269Z,3.13
2019-02-22T15:02:20.178Z,3.57
2019-02-22T15:04:49.055Z,2.03
2019-02-22T15:07:18.334Z,2.77
2019-02-22T15:09:47.478Z,3.03
2019-02-22T15:12:16.554Z,3.37
2019-02-22T15:14:45.574Z,3.93
2019-02-22T15:17:19.405Z,3.10
2019-02-22T15:19:48.260Z,3.17
2019-02-22T15:22:17.495Z,3.23
2019-02-22T15:24:46.682Z,2.67
2019-02-22T15:27:15.791Z,3.03
2019-02-22T15:29:44.731Z,2.83
2019-02-22T15:32:13.558Z,3.60
2019-02-22T15:34:42.811Z,3.10
2019-02-22T15:37:11.614Z,3.27
2019-02-22T15:39:40.591Z,2.57
2019-02-22T15:42:09.936Z,5.13
2019-02-22T15:44:39.429Z,3.23
2019-02-22T15:47:11.709Z,5.40
2019-02-22T15:49:39.127Z,4.03
2019-02-22T15:52:10.256Z,2.10
2019-02-22T15:54:39.152Z,2.77
2019-02-22T15:57:08.419Z,2.60
2019-02-22T15:59:37.462Z,4.40
2019-02-22T16:02:06.591Z,3.63
2019-02-22T16:04:57.763Z,2.60
2019-02-22T16:07:26.771Z,2.83
2019-02-22T16:09:56.150Z,3.03
2019-02-22T16:12:25.078Z,2.40
2019-02-22T16:14:54.070Z,1.87
2019-02-22T16:17:23.112Z,1.73
2019-02-22T16:19:51.991Z,3.40
2019-02-22T16:22:20.879Z,2.30
2019-02-22T16:24:49.857Z,2.73
2019-02-22T16:27:18.791Z,2.53
2019-02-22T16:29:47.686Z,4.73
2019-02-22T16:32:16.666Z,2.80
2019-02-22T16:34:46.745Z,2.87
2019-02-22T16:37:16.235Z,2.23
2019-02-22T16:39:45.110Z,2.73
2019-02-22T16:42:13.951Z,1.87
2019-02-22T16:44:42.785Z,3.40
2019-02-22T16:47:12.052Z,3.47
2019-02-22T16:49:41.139Z,2.67
2019-02-22T16:52:10.164Z,2.83
2019-02-22T16:54:39.736Z,2.37
2019-02-22T16:57:08.552Z,2.37
2019-02-22T16:59:37.406Z,3.27
2019-02-22T17:02:06.719Z,2.57
2019-02-22T17:04:35.683Z,2.73
2019-02-22T17:07:05.023Z,2.40
2019-02-22T17:09:34.026Z,2.13
2019-02-22T17:12:06.334Z,2.10
2019-02-22T17:14:33.633Z,2.97
2019-02-22T17:17:02.618Z,2.87
2019-02-22T17:19:32.069Z,3.87
2019-02-22T17:22:01.038Z,2.53
2019-02-22T17:24:30.040Z,3.63
2019-02-22T17:26:58.998Z,3.40
2019-02-22T17:29:27.910Z,2.30
2019-02-22T17:31:56.793Z,2.63
2019-02-22T17:34:25.947Z,3.47
2019-02-22T17:36:54.895Z,2.73
2019-02-22T17:39:24.042Z,3.33
2019-02-22T17:41:52.956Z,3.90
2019-02-22T17:44:21.946Z,3.47
2019-02-22T17:46:57.627Z,4.13
2019-02-22T17:49:21.688Z,3.65
2019-02-22T17:51:50.485Z,3.50
2019-02-22T17:54:19.429Z,3.33
2019-02-22T17:56:48.689Z,4.00
2019-02-22T17:59:17.957Z,5.23
2019-02-22T18:01:47.070Z,5.40
2019-02-22T18:04:15.958Z,5.15
2019-02-22T18:06:45.296Z,4.70
2019-02-22T18:09:14.386Z,5.85
2019-02-22T18:11:43.676Z,4.27
2019-02-22T18:14:12.625Z,6.28
2019-02-22T18:16:42.218Z,5.10
2019-02-22T18:19:11.098Z,5.45
2019-02-22T18:21:40.049Z,6.10
2019-02-22T18:24:09.478Z,6.33
2019-02-22T18:26:38.929Z,6.97
2019-02-22T18:29:08.038Z,6.75
2019-02-22T18:31:36.859Z,6.30
2019-02-22T18:34:05.869Z,6.37
2019-02-22T18:36:34.812Z,7.03
2019-02-22T18:39:05.563Z,9.43
2019-02-22T18:41:34.420Z,7.97
2019-02-22T18:44:03.449Z,7.42
2019-02-22T18:46:32.371Z,8.20
2019-02-22T18:49:01.562Z,8.35
2019-02-22T18:51:30.574Z,9.25
2019-02-22T18:53:59.430Z,10.35
2019-02-22T18:56:28.298Z,10.40
2019-02-22T18:58:57.214Z,7.50
2019-02-22T19:01:26.190Z,7.47
2019-02-22T19:03:55.325Z,7.67
2019-02-22T19:06:24.578Z,9.30
2019-02-22T19:08:53.549Z,7.45
2019-02-22T19:11:22.740Z,8.73
2019-02-22T19:13:51.980Z,10.35
2019-02-22T19:16:21.107Z,8.07
2019-02-22T19:18:50.143Z,10.20
2019-02-22T19:21:19.343Z,9.43
2019-02-22T19:23:48.388Z,8.73
2019-02-22T19:26:17.305Z,10.50
2019-02-22T19:28:46.184Z,9.03
2019-02-22T19:31:15.270Z,9.33
2019-02-22T19:33:44.522Z,8.75
2019-02-22T19:36:13.779Z,11.05
2019-02-22T19:38:42.841Z,8.55
2019-02-22T19:41:11.914Z,8.95
2019-02-22T19:43:41.319Z,8.30
2019-02-22T19:46:10.319Z,8.40
2019-02-22T19:48:39.266Z,8.63
2019-02-22T19:51:08.163Z,10.43
2019-02-22T19:53:37.127Z,7.97
2019-02-22T19:56:06.076Z,9.90
2019-02-22T19:58:35.123Z,9.23
2019-02-22T20:01:04.057Z,9.70
2019-02-22T20:03:33.215Z,8.55
2019-02-22T20:06:02.254Z,8.80
2019-02-22T20:08:31.258Z,8.20
2019-02-22T20:11:00.349Z,6.27
2019-02-22T20:13:29.394Z,7.47
2019-02-22T20:15:58.262Z,10.13
2019-02-22T20:18:27.276Z,8.48
2019-02-22T20:20:56.326Z,9.07
2019-02-22T20:23:26.433Z,8.05
2019-02-22T20:25:55.658Z,8.37
2019-02-22T20:28:24.841Z,8.45
2019-02-22T20:30:53.857Z,8.27
2019-02-22T20:33:23.473Z,9.35
2019-02-22T20:35:52.402Z,9.73
2019-02-22T20:38:21.446Z,7.60
2019-02-22T20:40:50.580Z,8.58
2019-02-22T20:43:19.551Z,8.88
2019-02-22T20:45:48.685Z,7.05
2019-02-22T20:48:17.547Z,8.33
2019-02-22T20:50:46.470Z,7.07
2019-02-22T20:53:15.430Z,7.95
2019-02-22T20:55:44.339Z,8.75
2019-02-22T20:58:13.442Z,9.13
2019-02-22T21:00:42.487Z,9.03
2019-02-22T21:03:11.568Z,10.38
2019-02-22T21:05:40.483Z,9.70
2019-02-22T21:08:09.770Z,11.18
2019-02-22T21:10:38.786Z,8.87
2019-02-22T21:13:07.763Z,10.18
2019-02-22T21:15:36.852Z,9.27
2019-02-22T21:18:15.990Z,8.78
2019-02-22T21:20:36.782Z,12.20
2019-02-22T21:23:05.790Z,8.55
2019-02-22T21:25:34.985Z,9.00
2019-02-22T21:28:03.960Z,7.80
2019-02-22T21:30:32.807Z,8.88
2019-02-22T21:33:01.653Z,10.05
2019-02-22T21:35:30.722Z,10.68
2019-02-22T21:37:59.741Z,8.98
2019-02-22T21:40:28.692Z,8.97
2019-02-22T21:42:57.757Z,9.05
2019-02-22T21:45:26.721Z,11.70
2019-02-22T21:47:56.290Z,11.35
2019-02-22T21:50:25.253Z,9.53
2019-02-22T21:52:54.235Z,8.93
2019-02-22T21:55:23.062Z,11.70
2019-02-22T21:57:52.094Z,8.60
2019-02-22T22:00:21.023Z,10.50
2019-02-22T22:02:49.949Z,15.40
2019-02-22T22:05:19.021Z,15.90
2019-02-22T22:07:47.984Z,12.07
2019-02-22T22:10:17.351Z,11.45
2019-02-22T22:12:46.567Z,10.60
2019-02-22T22:15:15.736Z,12.07
2019-02-22T22:17:44.719Z,10.88
2019-02-22T22:20:13.717Z,9.85
2019-02-22T22:22:42.961Z,10.32
2019-02-22T22:25:11.915Z,9.73
2019-02-22T22:27:40.964Z,10.43
2019-02-22T22:30:11.067Z,8.88
2019-02-22T22:32:40.116Z,10.25
2019-02-22T22:35:09.916Z,10.23
2019-02-22T22:37:38.853Z,10.75
2019-02-22T22:40:08.834Z,9.10
2019-02-22T22:42:37.829Z,10.05
2019-02-22T22:45:07.951Z,9.55
2019-02-22T22:47:36.822Z,9.78
2019-02-22T22:50:07.066Z,9.68
2019-02-22T22:52:36.054Z,11.48
2019-02-22T22:55:05.055Z,8.60
2019-02-22T22:57:34.133Z,7.53
2019-02-22T23:00:03.450Z,8.58
2019-02-22T23:02:32.358Z,8.25
2019-02-22T23:05:01.512Z,9.58
2019-02-22T23:07:30.452Z,8.50
2019-02-22T23:09:59.674Z,7.80
2019-02-22T23:12:28.642Z,10.77
2019-02-22T23:14:58.023Z,9.50
2019-02-22T23:17:27.039Z,7.03
2019-02-22T23:19:56.014Z,12.20
2019-02-22T23:22:25.068Z,9.93
2019-02-22T23:24:54.142Z,10.10
2019-02-22T23:27:23.160Z,9.63
2019-02-22T23:29:52.144Z,9.48
2019-02-22T23:32:21.302Z,8.37
2019-02-22T23:34:50.203Z,8.35
2019-02-22T23:37:19.595Z,8.13
2019-02-22T23:39:48.490Z,8.85
2019-02-22T23:42:17.354Z,9.25
2019-02-22T23:44:46.284Z,9.30
2019-02-22T23:47:15.371Z,8.38
2019-02-22T23:49:44.463Z,9.43
2019-02-22T23:52:13.327Z,9.88
2019-02-22T23:54:42.679Z,8.03
2019-02-22T23:57:11.850Z,8.77
2019-02-22T23:59:41.033Z,6.53
